createdAt,value
2022-10-28T00:00:38.978Z,57.45
2022-10-28T00:05:31.687Z,57.36
2022-10-28T00:10:24.472Z,57.37
2022-10-28T00:15:16.931Z,57.37
2022-10-28T00:20:09.631Z,57.38
2022-10-28T00:25:02.319Z,57.38
2022-10-28T00:29:54.988Z,57.36
2022-10-28T00:34:47.272Z,57.39
2022-10-28T00:39:39.877Z,57.35
2022-10-28T00:44:32.523Z,57.38
2022-10-28T00:49:24.521Z,57.36
2022-10-28T08:58:51.129Z,57.11
2022-10-28T09:03:33.373Z,57.19
2022-10-28T09:08:24.379Z,57.29
2022-10-28T09:13:16.855Z,57.4
2022-10-28T09:18:09.413Z,57.36
2022-10-28T09:23:01.640Z,57.33
2022-10-28T09:27:54.614Z,57.28
2022-10-28T09:32:47.023Z,57.29
2022-10-28T09:37:39.469Z,57.48
2022-10-28T09:42:32.180Z,57.4
2022-10-28T09:47:24.891Z,57.37
2022-10-28T09:52:17.587Z,57.5
2022-10-28T09:57:11.461Z,57.34
2022-10-28T10:02:02.719Z,57.41
2022-10-28T10:06:55.445Z,57.26
2022-10-28T10:11:48.048Z,57.5
2022-10-28T10:16:40.626Z,57.28
2022-10-28T10:21:33.194Z,57.3
2022-10-28T10:26:25.774Z,57.38
2022-10-28T10:31:18.450Z,57.24
2022-10-28T10:36:11.033Z,57.26
2022-10-28T10:41:03.767Z,57.38
2022-10-28T10:45:56.532Z,57.33
2022-10-28T10:50:49.361Z,57.39
2022-10-28T10:55:42.030Z,57.35
2022-10-28T11:00:34.610Z,57.29
2022-10-28T11:05:27.324Z,57.2
2022-10-28T11:10:19.816Z,57.13
2022-10-28T11:15:12.553Z,57.26
2022-10-28T11:20:05.249Z,57.26
2022-10-28T11:24:57.888Z,57.13
2022-10-28T11:29:50.588Z,57.18
2022-10-28T11:34:43.294Z,57.36
2022-10-28T11:39:35.931Z,57.33
2022-10-28T11:49:21.212Z,57.49
2022-10-28T11:59:06.661Z,57.46
2022-10-28T12:08:51.979Z,57.42
2022-10-28T12:13:44.625Z,57.39
2022-10-28T12:18:36.778Z,57.42
2022-10-28T12:23:29.520Z,57.3
2022-10-28T12:28:22.272Z,57.44
2022-10-28T12:33:14.950Z,57.37
2022-10-28T12:38:07.717Z,57.34
2022-10-28T12:43:00.359Z,57.41
2022-10-28T12:47:52.943Z,57.31
2022-10-28T12:52:45.701Z,57.39
2022-10-28T12:57:38.434Z,57.43
2022-10-28T13:02:31.044Z,57.38
2022-10-28T13:07:23.732Z,57.38
2022-10-28T13:12:16.057Z,57.39
2022-10-28T13:17:08.773Z,57.34
2022-10-28T13:22:01.539Z,57.27
2022-10-28T13:26:54.327Z,57.28
2022-10-28T13:31:46.975Z,57.33
2022-10-28T13:36:39.680Z,57.3
2022-10-28T13:41:32.386Z,57.31
2022-10-28T13:46:25.061Z,57.33
2022-10-28T13:51:17.644Z,57.31
2022-10-28T13:56:10.303Z,57.31
2022-10-28T14:01:03.078Z,57.25
2022-10-28T14:05:55.920Z,57.25
2022-10-28T14:10:48.626Z,57.21
2022-10-28T14:15:41.496Z,57.21
2022-10-28T14:20:33.979Z,57.26
2022-10-28T14:25:26.761Z,57.22
2022-10-28T14:30:19.652Z,57.37
2022-10-28T14:35:12.107Z,57.26
2022-10-28T14:40:04.575Z,57.36
2022-10-28T14:44:57.250Z,57.35
2022-10-28T14:49:49.893Z,57.45
2022-10-28T14:54:42.604Z,57.44
2022-10-28T14:59:35.215Z,57.37
2022-10-28T15:04:27.926Z,57.44
2022-10-28T15:09:20.532Z,57.46
2022-10-28T15:14:13.312Z,57.4
2022-10-28T15:19:06.021Z,57.49
2022-10-28T15:23:58.698Z,57.58
2022-10-28T15:28:51.419Z,57.58
2022-10-28T15:33:44.111Z,57.55
2022-10-28T15:38:36.687Z,57.5
2022-10-28T15:43:29.496Z,57.56
2022-10-28T15:48:21.843Z,57.65
2022-10-28T15:53:14.611Z,57.59
2022-10-28T15:58:07.329Z,57.63
2022-10-28T16:03:00.612Z,57.67
2022-10-28T16:07:53.195Z,57.58
2022-10-28T16:12:45.406Z,57.5
2022-10-28T16:17:38.379Z,57.38
2022-10-28T16:22:30.914Z,57.46
2022-10-28T16:27:23.733Z,57.59
2022-10-28T16:32:16.165Z,57.56
2022-10-28T16:37:08.953Z,57.61
2022-10-28T16:42:01.386Z,57.52
2022-10-28T16:46:54.073Z,57.6
2022-10-28T16:51:46.622Z,57.67
2022-10-28T16:56:39.113Z,57.76
2022-10-28T17:01:31.788Z,57.87
2022-10-28T17:06:24.432Z,57.83
2022-10-28T17:11:17.213Z,58.02
2022-10-28T17:16:09.903Z,57.99
2022-10-28T17:21:02.589Z,57.97
2022-10-28T17:25:55.222Z,57.98
2022-10-28T17:30:42.069Z,58.04
2022-10-28T17:35:35.440Z,58.02
2022-10-28T17:40:29.088Z,58.07
2022-10-28T17:45:22.194Z,58
2022-10-28T17:55:07.328Z,57.98
2022-10-28T18:04:52.635Z,58.11
2022-10-28T18:14:37.898Z,58.16
2022-10-28T18:19:30.691Z,58.25
2022-10-28T18:24:25.877Z,58.26
2022-10-28T18:29:16.016Z,58.4
2022-10-28T18:34:08.753Z,58.34
2022-10-28T18:39:01.513Z,58.33
2022-10-28T18:43:54.183Z,58.31
2022-10-28T18:48:46.956Z,58.29
2022-10-28T18:53:39.690Z,58.34
2022-10-28T18:58:32.468Z,58.35
2022-10-28T19:03:25.212Z,58.3
2022-10-28T19:08:17.458Z,58.34
2022-10-28T19:13:10.167Z,58.29
2022-10-28T19:18:02.833Z,58.37
2022-10-28T19:22:55.793Z,58.33
2022-10-28T19:27:48.343Z,58.38
2022-10-28T19:32:41.036Z,58.43
2022-10-28T19:37:33.668Z,58.4
2022-10-28T19:42:26.415Z,58.42
2022-10-28T19:47:19.031Z,58.42
2022-10-28T19:52:11.777Z,58.51
2022-10-28T19:57:04.445Z,58.4
2022-10-28T20:01:57.279Z,58.47
2022-10-28T20:06:49.603Z,58.55
2022-10-28T20:11:42.432Z,58.65
2022-10-28T20:16:34.855Z,58.53
2022-10-28T20:21:27.571Z,58.53
2022-10-28T20:26:19.743Z,58.46
2022-10-28T20:31:12.187Z,58.64
2022-10-28T20:36:04.743Z,58.46
2022-10-28T20:40:57.372Z,58.47
2022-10-28T20:45:49.865Z,58.45
2022-10-28T20:50:42.000Z,58.45
2022-10-28T20:55:34.486Z,58.58
2022-10-28T21:00:27.278Z,58.55
2022-10-28T21:05:19.968Z,58.49
2022-10-28T21:10:12.672Z,58.51
2022-10-28T21:15:05.107Z,58.55
2022-10-28T21:19:57.615Z,58.58
2022-10-28T21:24:50.213Z,58.46
2022-10-28T21:29:42.855Z,58.51
2022-10-28T21:34:35.384Z,58.55
2022-10-28T21:39:27.876Z,58.55
2022-10-28T21:44:20.437Z,58.55
2022-10-28T21:49:12.861Z,58.56
2022-10-28T21:54:05.454Z,58.69
2022-10-28T21:58:58.105Z,58.71
2022-10-28T22:03:50.123Z,58.8
2022-10-28T22:08:42.732Z,58.66
2022-10-28T22:13:35.280Z,58.61
2022-10-28T22:18:27.926Z,58.57
2022-10-28T22:23:20.557Z,58.58
2022-10-28T22:28:13.042Z,58.57
2022-10-28T22:33:05.858Z,58.57
2022-10-28T22:37:58.745Z,58.64
2022-10-28T22:42:51.218Z,58.58
2022-10-28T22:47:43.946Z,58.69
2022-10-28T22:52:36.483Z,58.67
2022-10-28T22:57:28.945Z,58.61
2022-10-28T23:02:21.580Z,58.62
2022-10-28T23:07:14.035Z,58.54
2022-10-28T23:12:06.529Z,58.55
2022-10-28T23:16:59.200Z,58.49
2022-10-28T23:21:51.479Z,58.55
2022-10-28T23:26:43.778Z,58.53
2022-10-28T23:31:36.333Z,58.5
2022-10-28T23:41:21.359Z,58.45
2022-10-28T23:51:04.335Z,58.49
